Terminal Aerodrome Forecast
Issued by NWS

Home | Current Version | Previous Version | Text Only | Print | Product List | Glossary Off
Versions: 1 2 3 4 5 6 7 8 9 10 11 12 13 14 15 16 17 18

503
FTUS42 KMHX 171737
TAFISO
TAF
KISO 171737Z 1718/1818 23006KT P6SM BKN015
      TEMPO 1719/1720 SCT015 BKN080
     FM172000 23007KT P6SM SCT030 BKN060
     FM180700 23009KT 5SM -SHRA SCT015 BKN040 WS020/25035KT
     FM181200 25009KT P6SM VCSH SCT015 OVC040
     FM181500 29010G20KT P6SM BKN040
      AMD LTD TO CLD VIS AND WIND=

USA.gov is the U.S. government's official web portal to all federal, state and local government web resources and services.